createdAt,value
2022-08-14T00:02:24.654Z,5.53
2022-08-14T00:04:59.710Z,5.50
2022-08-14T00:07:31.778Z,6.00
2022-08-14T00:10:49.747Z,5.70
2022-08-14T00:13:06.800Z,5.55
2022-08-14T00:15:48.413Z,6.50
2022-08-14T00:18:30.966Z,5.72
2022-08-14T00:21:15.976Z,5.68
2022-08-14T00:23:53.796Z,6.47
2022-08-14T00:26:26.344Z,6.25
2022-08-14T00:28:58.360Z,5.50
2022-08-14T00:31:44.474Z,4.85
2022-08-14T00:34:37.243Z,5.53
2022-08-14T00:37:10.049Z,5.25
2022-08-14T00:39:42.604Z,5.40
2022-08-14T00:42:21.269Z,5.68
2022-08-14T00:45:11.464Z,6.32
2022-08-14T00:47:48.305Z,7.88
2022-08-14T00:50:22.133Z,6.93
2022-08-14T00:52:54.369Z,6.60
2022-08-14T00:55:30.006Z,5.80
2022-08-14T00:58:32.882Z,5.72
2022-08-14T01:01:11.086Z,5.88
2022-08-14T01:03:43.760Z,5.22
2022-08-14T01:06:18.559Z,5.65
2022-08-14T01:08:58.147Z,5.47
2022-08-14T01:11:36.123Z,5.43
2022-08-14T01:14:25.654Z,5.97
2022-08-14T01:17:00.488Z,5.43
2022-08-14T01:19:50.805Z,5.38
2022-08-14T01:22:26.959Z,6.03
2022-08-14T01:25:01.496Z,5.60
2022-08-14T01:27:41.007Z,5.57
2022-08-14T01:30:28.226Z,5.82
2022-08-14T01:33:00.278Z,5.55
2022-08-14T01:36:05.388Z,5.30
2022-08-14T01:38:26.501Z,5.75
2022-08-14T01:40:58.838Z,5.80
2022-08-14T01:43:31.035Z,5.50
2022-08-14T01:46:11.605Z,6.28
2022-08-14T01:48:57.525Z,5.72
2022-08-14T01:51:33.729Z,5.93
2022-08-14T01:54:14.196Z,5.43
2022-08-14T01:56:47.090Z,5.63
2022-08-14T01:59:24.104Z,5.68
2022-08-14T02:02:09.986Z,5.75
2022-08-14T02:04:55.529Z,5.03
2022-08-14T02:07:44.648Z,5.72
2022-08-14T02:10:26.253Z,5.80
2022-08-14T02:12:59.590Z,5.77
2022-08-14T02:15:31.725Z,6.03
2022-08-14T02:18:04.500Z,5.85
2022-08-14T02:20:36.537Z,5.53
2022-08-14T02:23:09.058Z,5.68
2022-08-14T02:25:41.174Z,5.80
2022-08-14T02:28:24.233Z,5.38
2022-08-14T02:31:09.120Z,6.22
2022-08-14T02:33:43.001Z,6.18
2022-08-14T02:37:04.922Z,5.85
2022-08-14T02:39:10.755Z,5.63
2022-08-14T02:41:52.440Z,5.88
2022-08-14T02:44:29.735Z,5.53
2022-08-14T02:47:03.015Z,5.90
2022-08-14T02:49:39.708Z,5.80
2022-08-14T02:52:56.753Z,5.68
2022-08-14T02:55:07.317Z,5.28
2022-08-14T02:57:41.061Z,5.45
2022-08-14T03:00:18.542Z,5.40
2022-08-14T03:02:58.923Z,5.72
2022-08-14T03:05:35.992Z,6.07
2022-08-14T03:08:15.346Z,5.53
2022-08-14T03:10:50.006Z,6.17
2022-08-14T03:13:22.315Z,5.18
2022-08-14T03:15:57.876Z,5.70
2022-08-14T03:18:32.607Z,5.72
2022-08-14T03:21:08.042Z,6.00
2022-08-14T03:23:41.725Z,5.90
2022-08-14T03:26:29.883Z,6.05
2022-08-14T03:29:03.831Z,6.35
2022-08-14T03:31:36.554Z,5.60
2022-08-14T03:34:24.650Z,6.13
2022-08-14T03:37:51.539Z,6.72
2022-08-14T03:39:56.624Z,5.40
2022-08-14T03:42:31.049Z,5.97
2022-08-14T03:45:20.348Z,6.13
2022-08-14T03:48:27.463Z,5.15
2022-08-14T03:51:03.416Z,5.88
2022-08-14T03:53:38.060Z,5.78
2022-08-14T03:56:14.447Z,6.05
2022-08-14T03:59:18.094Z,6.10
2022-08-14T04:01:57.972Z,6.22
2022-08-14T04:04:34.014Z,6.40
2022-08-14T04:07:05.993Z,6.72
2022-08-14T04:09:38.430Z,5.13
2022-08-14T04:12:13.476Z,5.88
2022-08-14T04:14:46.364Z,6.03
2022-08-14T04:17:20.236Z,6.25
2022-08-14T04:19:54.434Z,5.93
2022-08-14T04:22:26.497Z,6.85
2022-08-14T04:25:04.902Z,6.15
2022-08-14T04:28:01.942Z,6.03
2022-08-14T04:30:32.655Z,6.07
2022-08-14T04:33:15.866Z,6.05
2022-08-14T04:35:56.337Z,6.65
2022-08-14T04:38:47.301Z,6.72
2022-08-14T04:44:26.674Z,6.07
2022-08-14T04:47:27.105Z,6.65
2022-08-14T04:50:06.739Z,6.78
2022-08-14T04:52:39.447Z,6.75
2022-08-14T04:55:11.604Z,6.38
2022-08-14T04:57:43.595Z,6.50
2022-08-14T05:00:18.116Z,6.40
2022-08-14T05:02:50.292Z,6.38
2022-08-14T05:05:23.247Z,6.38
2022-08-14T05:08:01.790Z,6.95
2022-08-14T05:10:33.960Z,7.00
2022-08-14T05:13:13.449Z,7.03
2022-08-14T05:15:47.940Z,6.93
2022-08-14T05:18:37.192Z,7.35
2022-08-14T05:22:00.240Z,7.95
2022-08-14T05:24:17.823Z,7.90
2022-08-14T05:26:50.957Z,7.28
2022-08-14T05:29:23.727Z,7.20
2022-08-14T05:31:57.361Z,6.18
2022-08-14T05:34:31.566Z,6.78
2022-08-14T05:37:06.820Z,6.75
2022-08-14T05:39:41.316Z,6.75
2022-08-14T05:42:22.200Z,6.40
2022-08-14T05:44:59.892Z,6.70
2022-08-14T05:47:34.170Z,7.03
2022-08-14T05:50:17.372Z,6.82
2022-08-14T05:52:51.621Z,6.80
2022-08-14T05:55:24.079Z,7.20
2022-08-14T05:57:59.959Z,6.88
2022-08-14T06:00:40.113Z,6.00
2022-08-14T06:05:53.309Z,6.22
2022-08-14T06:08:36.301Z,6.72
2022-08-14T06:11:14.935Z,6.72
2022-08-14T06:13:52.600Z,6.15
2022-08-14T06:16:24.564Z,6.78
2022-08-14T06:18:59.656Z,6.82
2022-08-14T06:21:31.796Z,5.82
2022-08-14T06:24:05.269Z,6.95
2022-08-14T06:26:42.582Z,6.13
2022-08-14T06:29:24.017Z,6.20
2022-08-14T06:32:00.393Z,5.65
2022-08-14T06:35:03.661Z,5.95
2022-08-14T06:37:51.969Z,5.00
2022-08-14T06:40:28.772Z,5.70
2022-08-14T06:43:07.446Z,6.35
2022-08-14T06:45:42.073Z,6.10
2022-08-14T06:48:24.098Z,5.13
2022-08-14T06:50:57.823Z,5.35
2022-08-14T06:53:30.212Z,5.15
2022-08-14T06:56:02.586Z,5.57
2022-08-14T06:58:35.709Z,5.18
2022-08-14T07:01:27.910Z,6.00
2022-08-14T07:04:23.749Z,4.88
2022-08-14T07:06:59.598Z,5.40
2022-08-14T07:09:43.647Z,5.82
2022-08-14T07:12:55.083Z,5.90
2022-08-14T07:15:15.594Z,5.93
2022-08-14T07:17:52.141Z,5.40
2022-08-14T07:20:31.165Z,5.90
2022-08-14T07:23:10.831Z,6.00
2022-08-14T07:25:44.822Z,6.00
2022-08-14T07:28:29.718Z,6.32
2022-08-14T07:31:05.828Z,6.15
2022-08-14T07:33:50.814Z,5.13
2022-08-14T07:36:30.320Z,6.47
2022-08-14T07:39:13.179Z,6.47
2022-08-14T07:41:45.346Z,6.75
2022-08-14T07:44:32.567Z,6.72
2022-08-14T07:47:08.085Z,5.53
2022-08-14T07:49:41.531Z,7.00
2022-08-14T07:52:15.495Z,5.75
2022-08-14T07:54:55.013Z,5.90
2022-08-14T07:57:27.886Z,5.68
2022-08-14T07:59:59.928Z,5.07
2022-08-14T08:02:32.837Z,5.53
2022-08-14T08:05:06.767Z,5.47
2022-08-14T08:07:40.528Z,5.65
2022-08-14T08:11:02.469Z,5.53
2022-08-14T08:13:29.349Z,5.32
2022-08-14T08:16:03.370Z,5.10
2022-08-14T08:18:36.309Z,4.85
2022-08-14T08:21:08.527Z,4.70
2022-08-14T08:23:43.570Z,4.90
2022-08-14T08:26:30.937Z,4.88
2022-08-14T08:29:03.142Z,4.88
2022-08-14T08:31:49.002Z,4.72
2022-08-14T08:34:24.330Z,4.45
2022-08-14T08:37:01.679Z,4.45
2022-08-14T08:40:01.732Z,5.00
2022-08-14T08:42:41.190Z,5.50
2022-08-14T08:45:17.863Z,4.05
2022-08-14T08:47:51.295Z,3.90
2022-08-14T08:53:11.125Z,4.30
2022-08-14T08:55:45.990Z,4.38
2022-08-14T08:58:20.259Z,4.00
2022-08-14T09:01:00.180Z,4.70
2022-08-14T09:03:32.419Z,4.75
2022-08-14T09:06:53.826Z,5.30
2022-08-14T09:08:58.033Z,4.68
2022-08-14T09:11:30.449Z,4.57
2022-08-14T09:14:05.596Z,4.63
2022-08-14T09:16:37.939Z,4.78
2022-08-14T09:19:10.938Z,4.97
2022-08-14T09:21:43.011Z,5.00
2022-08-14T09:24:28.094Z,5.32
2022-08-14T09:27:06.753Z,6.57
2022-08-14T09:29:39.121Z,4.95
2022-08-14T09:32:57.951Z,4.65
2022-08-14T09:35:39.375Z,5.00
2022-08-14T09:39:21.161Z,5.13
2022-08-14T09:42:33.814Z,4.97
2022-08-14T09:45:20.168Z,5.07
2022-08-14T09:47:55.705Z,5.28
2022-08-14T09:50:48.878Z,5.25
2022-08-14T09:54:18.203Z,6.63
2022-08-14T09:56:56.913Z,5.30
2022-08-14T09:59:41.755Z,5.57
2022-08-14T10:02:22.137Z,5.50
2022-08-14T10:05:10.146Z,4.80
2022-08-14T10:07:53.732Z,5.72
2022-08-14T10:10:41.863Z,4.90
2022-08-14T10:13:25.996Z,5.43
2022-08-14T10:16:03.052Z,5.47
2022-08-14T10:18:35.251Z,5.18
2022-08-14T10:21:16.422Z,4.97
2022-08-14T10:23:52.550Z,5.28
2022-08-14T10:26:28.399Z,5.20
2022-08-14T10:29:18.699Z,5.28
2022-08-14T10:31:59.572Z,4.95
2022-08-14T10:34:36.567Z,5.55
2022-08-14T10:37:15.150Z,4.82
2022-08-14T10:40:10.707Z,5.00
2022-08-14T10:42:53.387Z,5.22
2022-08-14T10:45:35.694Z,4.97
2022-08-14T10:48:23.688Z,4.65
2022-08-14T10:51:08.485Z,4.50
2022-08-14T10:53:40.809Z,4.90
2022-08-14T10:56:21.561Z,4.63
2022-08-14T10:59:08.791Z,4.90
2022-08-14T11:01:42.935Z,4.53
2022-08-14T11:04:30.795Z,3.50
2022-08-14T11:07:05.877Z,4.63
2022-08-14T11:09:41.951Z,4.40
2022-08-14T11:12:34.372Z,4.05
2022-08-14T11:15:09.974Z,3.55
2022-08-14T11:17:42.070Z,3.78
2022-08-14T11:20:30.800Z,3.63
2022-08-14T11:23:03.154Z,3.90
2022-08-14T11:25:44.445Z,3.58
2022-08-14T11:28:48.613Z,4.10
2022-08-14T11:31:23.974Z,3.35
2022-08-14T11:33:58.482Z,3.92
2022-08-14T11:37:02.340Z,4.00
2022-08-14T11:39:35.050Z,4.05
2022-08-14T11:42:56.240Z,4.20
2022-08-14T11:45:17.061Z,3.50
2022-08-14T11:48:12.575Z,3.53
2022-08-14T11:50:50.666Z,3.63
2022-08-14T11:53:33.337Z,3.40
2022-08-14T11:56:06.493Z,3.85
2022-08-14T11:58:43.542Z,4.00
2022-08-14T12:01:15.871Z,4.05
2022-08-14T12:03:52.144Z,3.38
2022-08-14T12:06:39.389Z,2.95
2022-08-14T12:09:15.225Z,3.85
2022-08-14T12:11:51.472Z,3.38
2022-08-14T12:14:30.950Z,3.30
2022-08-14T12:17:11.750Z,2.88
2022-08-14T12:20:06.470Z,3.55
2022-08-14T12:22:44.546Z,3.58
2022-08-14T12:25:24.899Z,3.83
2022-08-14T12:28:01.654Z,3.60
2022-08-14T12:30:44.441Z,3.95
2022-08-14T12:33:34.053Z,3.67
2022-08-14T12:36:20.964Z,3.50
2022-08-14T12:38:55.068Z,3.70
2022-08-14T12:41:37.215Z,3.47
2022-08-14T12:44:09.459Z,3.88
2022-08-14T12:46:43.373Z,3.95
2022-08-14T12:49:18.894Z,3.65
2022-08-14T12:51:59.693Z,3.75
2022-08-14T12:54:32.620Z,3.67
2022-08-14T12:57:19.390Z,3.70
2022-08-14T12:59:53.565Z,3.97
2022-08-14T13:02:27.614Z,3.75
2022-08-14T13:04:59.846Z,3.80
2022-08-14T13:07:33.239Z,3.70
2022-08-14T13:10:47.218Z,4.15
2022-08-14T13:13:15.613Z,4.05
2022-08-14T13:15:57.193Z,3.83
2022-08-14T13:18:31.671Z,3.92
2022-08-14T13:21:05.687Z,3.92
2022-08-14T13:23:41.129Z,4.07
2022-08-14T13:26:17.370Z,4.55
2022-08-14T13:29:02.446Z,4.50
2022-08-14T13:31:39.105Z,4.55
2022-08-14T13:34:16.156Z,4.50
2022-08-14T13:36:54.693Z,5.10
2022-08-14T13:39:36.432Z,5.15
2022-08-14T13:42:13.436Z,6.05
2022-08-14T13:44:46.198Z,4.65
2022-08-14T13:47:20.162Z,4.80
2022-08-14T13:49:57.571Z,4.30
2022-08-14T13:52:55.526Z,4.82
2022-08-14T13:55:30.635Z,4.90
2022-08-14T13:58:05.202Z,4.78
2022-08-14T14:00:53.137Z,4.80
2022-08-14T14:05:59.063Z,4.75
2022-08-14T14:08:46.778Z,4.80
2022-08-14T14:11:24.286Z,4.95
2022-08-14T14:14:00.002Z,4.88
2022-08-14T14:16:33.036Z,5.03
2022-08-14T14:19:09.379Z,5.13
2022-08-14T14:21:42.494Z,4.70
2022-08-14T14:24:15.371Z,4.38
2022-08-14T14:26:50.205Z,4.80
2022-08-14T14:29:26.371Z,5.00
2022-08-14T14:32:02.039Z,5.07
2022-08-14T14:34:37.799Z,5.07
2022-08-14T14:37:15.613Z,5.03
2022-08-14T14:40:52.662Z,5.20
2022-08-14T14:42:53.262Z,4.70
2022-08-14T14:45:28.394Z,4.85
2022-08-14T14:48:00.990Z,4.97
2022-08-14T14:50:34.138Z,4.75
2022-08-14T14:53:13.254Z,5.03
2022-08-14T14:56:46.625Z,4.38
2022-08-14T14:58:41.997Z,4.85
2022-08-14T15:01:15.885Z,4.47
2022-08-14T15:03:48.152Z,4.93
2022-08-14T15:06:29.492Z,4.72
2022-08-14T15:09:04.692Z,4.43
2022-08-14T15:11:37.085Z,5.22
2022-08-14T15:14:55.246Z,4.72
2022-08-14T15:17:02.847Z,6.57
2022-08-14T15:19:35.450Z,5.43
2022-08-14T15:22:10.442Z,5.45
2022-08-14T15:24:46.553Z,5.00
2022-08-14T15:27:26.172Z,4.65
2022-08-14T15:29:59.565Z,5.47
2022-08-14T15:32:31.741Z,5.55
2022-08-14T15:35:04.862Z,5.93
2022-08-14T15:37:44.415Z,4.28
2022-08-14T15:40:22.179Z,4.78
2022-08-14T15:42:54.750Z,4.57
2022-08-14T15:45:28.043Z,5.25
2022-08-14T15:48:02.117Z,4.50
2022-08-14T15:50:36.272Z,4.55
2022-08-14T15:53:09.220Z,4.82
2022-08-14T15:55:44.281Z,4.97
2022-08-14T15:58:16.976Z,3.92
2022-08-14T16:01:10.688Z,5.53
2022-08-14T16:03:46.321Z,5.35
2022-08-14T16:06:20.902Z,5.43
2022-08-14T16:08:58.719Z,5.65
2022-08-14T16:11:32.940Z,6.32
2022-08-14T16:14:06.782Z,5.20
2022-08-14T16:16:51.597Z,5.10
2022-08-14T16:19:31.929Z,5.30
2022-08-14T16:22:58.063Z,5.70
2022-08-14T16:25:05.725Z,6.30
2022-08-14T16:27:41.364Z,5.75
2022-08-14T16:30:25.184Z,5.93
2022-08-14T16:33:01.298Z,4.90
2022-08-14T16:35:42.697Z,4.68
2022-08-14T16:38:46.472Z,5.82
2022-08-14T16:41:26.523Z,7.20
2022-08-14T16:44:21.893Z,6.40
2022-08-14T16:47:22.641Z,5.35
2022-08-14T16:50:04.502Z,5.65
2022-08-14T16:52:44.295Z,6.15
2022-08-14T16:55:18.145Z,5.78
2022-08-14T16:57:58.504Z,7.28
2022-08-14T17:00:44.084Z,5.93
2022-08-14T17:03:17.186Z,6.10
2022-08-14T17:05:49.401Z,6.63
2022-08-14T17:08:41.882Z,5.55
2022-08-14T17:11:15.420Z,6.10
2022-08-14T17:14:00.518Z,6.32
2022-08-14T17:16:39.181Z,6.15
2022-08-14T17:19:14.192Z,5.35
2022-08-14T17:21:52.346Z,6.82
2022-08-14T17:24:57.896Z,6.10
2022-08-14T17:27:23.112Z,5.85
2022-08-14T17:29:57.772Z,5.88
2022-08-14T17:32:56.178Z,5.28
2022-08-14T17:35:58.159Z,5.28
2022-08-14T17:38:39.581Z,5.97
2022-08-14T17:41:32.984Z,6.15
2022-08-14T17:44:34.359Z,7.22
2022-08-14T17:47:17.811Z,7.38
2022-08-14T17:49:52.316Z,6.57
2022-08-14T17:52:34.853Z,6.88
2022-08-14T17:56:01.428Z,6.53
2022-08-14T17:58:20.351Z,6.43
2022-08-14T18:01:04.675Z,6.15
2022-08-14T18:03:50.677Z,6.55
2022-08-14T18:06:39.592Z,7.22
2022-08-14T18:09:25.159Z,6.90
2022-08-14T18:12:07.412Z,7.00
2022-08-14T18:14:48.950Z,6.93
2022-08-14T18:17:26.108Z,7.18
2022-08-14T18:19:58.872Z,8.23
2022-08-14T18:22:39.452Z,7.07
2022-08-14T18:25:18.338Z,7.13
2022-08-14T18:27:52.641Z,6.82
2022-08-14T18:30:33.163Z,7.20
2022-08-14T18:33:22.926Z,7.55
2022-08-14T18:35:59.313Z,6.90
2022-08-14T18:38:46.472Z,6.72
2022-08-14T18:41:37.412Z,8.43
2022-08-14T18:44:11.111Z,9.32
2022-08-14T18:47:10.181Z,7.57
2022-08-14T18:49:57.863Z,7.57
2022-08-14T18:52:41.703Z,8.05
2022-08-14T18:55:18.969Z,7.30
2022-08-14T18:57:58.268Z,7.20
2022-08-14T19:00:33.798Z,10.20
2022-08-14T19:03:33.815Z,9.55
2022-08-14T19:06:10.870Z,10.57
2022-08-14T19:08:50.498Z,8.85
2022-08-14T19:11:32.470Z,8.10
2022-08-14T19:14:07.227Z,8.15
2022-08-14T19:16:42.944Z,8.32
2022-08-14T19:19:20.082Z,8.38
2022-08-14T19:21:57.212Z,11.02
2022-08-14T19:24:44.199Z,8.90
2022-08-14T19:27:37.792Z,7.72
2022-08-14T19:30:19.863Z,8.40
2022-08-14T19:32:57.869Z,8.13
2022-08-14T19:35:49.964Z,8.55
2022-08-14T19:38:55.062Z,8.60
2022-08-14T19:41:34.038Z,8.65
2022-08-14T19:44:20.123Z,8.73
2022-08-14T19:47:04.888Z,8.23
2022-08-14T19:50:30.555Z,10.15
2022-08-14T19:52:37.363Z,8.63
2022-08-14T19:55:20.403Z,8.48
2022-08-14T19:58:07.442Z,9.35
2022-08-14T20:00:56.010Z,8.05
2022-08-14T20:04:00.375Z,9.63
2022-08-14T20:06:46.596Z,8.57
2022-08-14T20:11:02.962Z,8.38
2022-08-14T20:12:29.194Z,8.48
2022-08-14T20:15:15.404Z,8.52
2022-08-14T20:17:53.524Z,8.27
2022-08-14T20:20:31.630Z,9.15
2022-08-14T20:23:16.640Z,8.73
2022-08-14T20:25:56.897Z,9.27
2022-08-14T20:28:32.822Z,9.02
2022-08-14T20:31:18.712Z,8.45
2022-08-14T20:34:08.002Z,8.77
2022-08-14T20:37:10.435Z,9.27
2022-08-14T20:39:54.600Z,8.80
2022-08-14T20:42:50.447Z,8.80
2022-08-14T20:45:27.583Z,8.18
2022-08-14T20:48:01.823Z,8.90
2022-08-14T20:50:44.900Z,8.68
2022-08-14T20:53:36.567Z,9.00
2022-08-14T20:56:30.333Z,8.38
2022-08-14T20:59:25.748Z,9.00
2022-08-14T21:02:00.499Z,9.05
2022-08-14T21:05:00.710Z,8.48
2022-08-14T21:07:36.147Z,8.05
2022-08-14T21:10:36.030Z,8.90
2022-08-14T21:14:09.260Z,8.90
2022-08-14T21:16:33.196Z,9.15
2022-08-14T21:19:02.287Z,8.60
2022-08-14T21:21:41.743Z,8.80
2022-08-14T21:24:38.792Z,8.35
2022-08-14T21:27:22.792Z,8.40
2022-08-14T21:29:56.478Z,8.20
2022-08-14T21:32:47.343Z,9.98
2022-08-14T21:35:23.026Z,9.10
2022-08-14T21:37:57.132Z,7.93
2022-08-14T21:40:40.254Z,9.40
2022-08-14T21:43:20.236Z,8.77
2022-08-14T21:45:58.765Z,8.20
2022-08-14T21:48:34.085Z,8.52
2022-08-14T21:51:54.235Z,8.18
2022-08-14T21:54:01.398Z,8.27
2022-08-14T21:56:41.923Z,8.18
2022-08-14T21:59:34.182Z,8.05
2022-08-14T22:02:08.035Z,7.88
2022-08-14T22:05:03.548Z,8.55
2022-08-14T22:07:36.837Z,8.25
2022-08-14T22:10:14.238Z,8.60
2022-08-14T22:13:00.324Z,7.63
2022-08-14T22:15:33.385Z,7.88
2022-08-14T22:18:06.378Z,7.32
2022-08-14T22:20:41.080Z,8.48
2022-08-14T22:23:13.531Z,7.70
2022-08-14T22:25:46.221Z,7.40
2022-08-14T22:28:32.933Z,7.38
2022-08-14T22:31:18.392Z,7.32
2022-08-14T22:33:57.779Z,7.05
2022-08-14T22:36:49.055Z,6.90
2022-08-14T22:40:54.002Z,6.60
2022-08-14T22:42:22.941Z,6.45
2022-08-14T22:44:56.746Z,6.40
2022-08-14T22:47:34.562Z,6.97
2022-08-14T22:50:29.089Z,6.38
2022-08-14T22:53:06.682Z,6.60
2022-08-14T22:55:40.186Z,6.10
2022-08-14T22:58:17.090Z,6.32
2022-08-14T23:00:49.796Z,6.65
2022-08-14T23:03:23.111Z,6.60
2022-08-14T23:05:55.106Z,5.97
2022-08-14T23:08:59.358Z,6.03
2022-08-14T23:11:19.453Z,6.47
2022-08-14T23:13:54.838Z,6.57
2022-08-14T23:16:26.836Z,6.00
2022-08-14T23:18:58.963Z,6.07
2022-08-14T23:21:31.080Z,6.07
2022-08-14T23:24:06.114Z,6.28
2022-08-14T23:26:47.792Z,6.53
2022-08-14T23:29:22.080Z,5.78
2022-08-14T23:31:56.968Z,6.03
2022-08-14T23:34:31.328Z,6.10
2022-08-14T23:37:04.632Z,6.28
2022-08-14T23:39:39.237Z,6.50
2022-08-14T23:42:17.968Z,6.15
2022-08-14T23:44:50.697Z,6.35
2022-08-14T23:47:26.425Z,6.40
2022-08-14T23:50:07.556Z,5.70
2022-08-14T23:53:06.812Z,6.20
2022-08-14T23:55:34.432Z,6.15
2022-08-14T23:58:07.712Z,6.25
